Time;durP1;ratioP1;P1;durP2;ratioP2;P2;SDS_P1;SDS_P2;PMS_P1;PMS_P2;Temp;Humidity;BMP_temperature;BMP_pressure;BME280_temperature;BME280_humidity;BME280_pressure;Samples;Min_cycle;Max_cycle;Signal;HPM_P1;HPM_P2
2022/04/18 00:00:16;;;;;;;6.40;3.00;;;;;;;;;;5032606;28;20257;-84
2022/04/18 00:02:43;;;;;;;5.10;3.10;;;;;;;;;;5033473;28;20213;-84
2022/04/18 00:05:10;;;;;;;3.37;3.07;;;;;;;;;;5032649;28;20238;-84
2022/04/18 00:07:37;;;;;;;3.33;2.73;;;;;;;;;;5032716;28;20226;-84
2022/04/18 00:10:05;;;;;;;3.77;3.30;;;;;;;;;;5032800;28;20547;-84
2022/04/18 00:12:33;;;;;;;4.20;2.80;;;;;;;;;;5032808;28;20214;-84
2022/04/18 00:15:00;;;;;;;3.10;2.80;;;;;;;;;;5032665;28;20241;-84
2022/04/18 00:17:27;;;;;;;4.93;2.50;;;;;;;;;;5037739;28;20573;-83
2022/04/18 00:19:55;;;;;;;3.60;2.90;;;;;;;;;;5053536;28;20234;-83
2022/04/18 00:22:23;;;;;;;3.20;2.87;;;;;;;;;;5054014;28;20231;-83
2022/04/18 00:24:50;;;;;;;3.73;3.27;;;;;;;;;;5051031;28;20298;-84
2022/04/18 00:27:17;;;;;;;3.20;3.00;;;;;;;;;;5034043;28;20309;-83
2022/04/18 00:29:47;;;;;;;3.20;2.90;;;;;;;;;;5032349;28;20244;-84
2022/04/18 00:32:14;;;;;;;3.40;2.90;;;;;;;;;;5033664;28;20280;-84
2022/04/18 00:34:41;;;;;;;3.43;3.13;;;;;;;;;;5032444;28;20230;-83
2022/04/18 00:37:09;;;;;;;5.23;3.30;;;;;;;;;;5031881;28;20205;-84
2022/04/18 00:39:36;;;;;;;3.47;3.17;;;;;;;;;;5031108;28;20229;-84
2022/04/18 00:42:03;;;;;;;3.27;3.00;;;;;;;;;;5032172;28;20205;-84
2022/04/18 00:44:30;;;;;;;3.40;2.70;;;;;;;;;;5031922;28;20202;-84
2022/04/18 00:46:58;;;;;;;4.30;2.80;;;;;;;;;;5032613;28;20210;-84
2022/04/18 00:49:25;;;;;;;3.53;3.20;;;;;;;;;;5031664;28;20243;-83
2022/04/18 00:51:53;;;;;;;3.07;2.77;;;;;;;;;;5033899;28;20214;-84
2022/04/18 00:54:20;;;;;;;3.90;3.60;;;;;;;;;;5032695;28;20220;-84
2022/04/18 00:56:47;;;;;;;3.50;3.20;;;;;;;;;;5033511;28;20206;-84
2022/04/18 00:59:14;;;;;;;3.30;3.00;;;;;;;;;;5032201;28;20237;-84
2022/04/18 01:01:41;;;;;;;3.60;3.10;;;;;;;;;;5031594;28;20236;-83
2022/04/18 01:04:10;;;;;;;4.73;3.37;;;;;;;;;;5035118;28;20203;-84
2022/04/18 01:06:37;;;;;;;3.37;3.07;;;;;;;;;;5029818;28;20241;-84
2022/04/18 01:09:04;;;;;;;3.50;3.00;;;;;;;;;;5032755;28;20596;-84
2022/04/18 01:11:33;;;;;;;3.53;3.23;;;;;;;;;;5055260;28;20243;-84
2022/04/18 01:14:01;;;;;;;3.67;2.97;;;;;;;;;;5043225;28;20209;-83
2022/04/18 01:16:28;;;;;;;3.80;3.50;;;;;;;;;;5035347;28;20280;-84
2022/04/18 01:18:57;;;;;;;3.73;3.33;;;;;;;;;;5035577;28;20231;-84
2022/04/18 01:21:26;;;;;;;4.80;3.53;;;;;;;;;;5035214;28;20238;-84
2022/04/18 01:23:55;;;;;;;3.47;3.17;;;;;;;;;;5035651;28;20205;-84
2022/04/18 01:29:06;;;;;;;3.47;3.00;;;;;;;;;;5034855;28;20351;-83
2022/04/18 01:31:35;;;;;;;3.90;3.07;;;;;;;;;;5034567;28;20247;-84
2022/04/18 01:34:02;;;;;;;3.13;2.90;;;;;;;;;;5035402;28;20668;-84
2022/04/18 01:36:30;;;;;;;3.90;3.33;;;;;;;;;;5034887;28;20251;-83
2022/04/18 01:38:57;;;;;;;3.33;3.07;;;;;;;;;;5035201;28;20223;-84
2022/04/18 01:41:24;;;;;;;4.37;3.10;;;;;;;;;;5034741;28;20629;-84
2022/04/18 01:43:52;;;;;;;5.10;3.40;;;;;;;;;;5035243;28;20305;-84
2022/04/18 01:46:19;;;;;;;4.83;2.93;;;;;;;;;;5034767;28;20234;-83
2022/04/18 01:48:50;;;;;;;3.37;3.03;;;;;;;;;;5035250;28;20234;-84
2022/04/18 01:51:17;;;;;;;2.97;2.73;;;;;;;;;;5035406;28;20296;-84
2022/04/18 01:53:46;;;;;;;3.40;2.80;;;;;;;;;;5035749;28;20574;-84
2022/04/18 01:56:13;;;;;;;4.57;3.10;;;;;;;;;;5035032;28;20234;-84
2022/04/18 01:58:40;;;;;;;4.23;3.83;;;;;;;;;;5041338;28;20233;-84
2022/04/18 02:01:07;;;;;;;3.40;2.90;;;;;;;;;;5049761;28;20240;-84
2022/04/18 02:03:34;;;;;;;7.17;3.30;;;;;;;;;;5060604;28;20198;-84
2022/04/18 02:06:01;;;;;;;4.10;3.47;;;;;;;;;;5055400;28;20274;-84
2022/04/18 02:08:28;;;;;;;3.60;3.20;;;;;;;;;;5056339;28;20219;-84
2022/04/18 02:10:57;;;;;;;4.00;3.10;;;;;;;;;;5055006;28;20234;-84
2022/04/18 02:13:24;;;;;;;4.00;3.37;;;;;;;;;;5054716;28;20211;-83
2022/04/18 02:15:51;;;;;;;3.37;3.17;;;;;;;;;;5054150;28;20238;-84
2022/04/18 02:18:18;;;;;;;3.40;3.10;;;;;;;;;;5054638;28;20223;-83
2022/04/18 02:20:45;;;;;;;3.40;2.70;;;;;;;;;;5053182;28;20234;-83
2022/04/18 02:23:12;;;;;;;3.87;2.97;;;;;;;;;;5054487;28;20209;-83
2022/04/18 02:25:39;;;;;;;3.37;3.07;;;;;;;;;;5054628;28;20234;-83
2022/04/18 02:28:08;;;;;;;3.40;3.10;;;;;;;;;;5054231;28;20594;-82
2022/04/18 02:30:35;;;;;;;3.73;2.90;;;;;;;;;;5053824;28;20252;-83
2022/04/18 02:33:02;;;;;;;3.40;3.10;;;;;;;;;;5054431;28;20217;-83
2022/04/18 02:35:29;;;;;;;3.77;3.17;;;;;;;;;;5053744;28;20230;-83
2022/04/18 02:37:56;;;;;;;5.23;3.87;;;;;;;;;;5054377;28;20226;-83
2022/04/18 02:40:23;;;;;;;3.23;2.93;;;;;;;;;;5053672;28;20239;-83
2022/04/18 02:42:50;;;;;;;3.37;3.07;;;;;;;;;;5054002;28;20210;-83
2022/04/18 02:45:19;;;;;;;6.00;3.13;;;;;;;;;;5054076;28;20244;-84
2022/04/18 02:47:47;;;;;;;3.03;2.83;;;;;;;;;;5053953;28;20230;-83
2022/04/18 02:50:14;;;;;;;3.50;3.00;;;;;;;;;;5053771;28;20244;-83
2022/04/18 02:52:41;;;;;;;3.10;2.90;;;;;;;;;;5053618;28;20213;-82
2022/04/18 02:55:11;;;;;;;3.57;2.87;;;;;;;;;;5053431;28;20230;-83
2022/04/18 02:57:38;;;;;;;3.10;2.87;;;;;;;;;;5054051;28;20249;-84
2022/04/18 03:00:06;;;;;;;3.17;2.87;;;;;;;;;;5053097;28;20631;-83
2022/04/18 03:02:34;;;;;;;3.33;3.13;;;;;;;;;;5054502;28;20201;-84
2022/04/18 03:05:01;;;;;;;3.50;3.20;;;;;;;;;;5053444;28;20238;-83
2022/04/18 03:07:29;;;;;;;3.40;3.00;;;;;;;;;;5053530;28;20226;-83
2022/04/18 03:09:56;;;;;;;3.63;3.27;;;;;;;;;;5053327;28;20601;-83
2022/04/18 03:12:23;;;;;;;3.50;3.20;;;;;;;;;;5053632;28;20217;-84
2022/04/18 03:14:50;;;;;;;4.07;3.30;;;;;;;;;;5053136;28;20237;-83
2022/04/18 03:17:17;;;;;;;2.87;2.67;;;;;;;;;;5053208;28;20542;-84
2022/04/18 03:19:45;;;;;;;3.60;3.30;;;;;;;;;;5052799;28;20732;-83
2022/04/18 03:22:13;;;;;;;4.23;3.17;;;;;;;;;;5053864;28;20209;-84
2022/04/18 03:24:40;;;;;;;3.27;2.97;;;;;;;;;;5052831;28;20238;-82
2022/04/18 03:27:07;;;;;;;3.60;3.17;;;;;;;;;;5054654;28;20226;-83
2022/04/18 03:29:35;;;;;;;3.43;3.13;;;;;;;;;;5053332;28;20596;-83
2022/04/18 03:32:03;;;;;;;6.17;2.90;;;;;;;;;;5053363;28;20206;-83
2022/04/18 03:34:30;;;;;;;5.23;3.03;;;;;;;;;;5052569;28;20336;-82
2022/04/18 03:39:54;;;;;;;3.47;3.17;;;;;;;;;;5052196;28;20240;-83
2022/04/18 03:42:28;;;;;;;4.33;3.10;;;;;;;;;;5053673;28;20190;-83
2022/04/18 03:44:56;;;;;;;5.03;3.90;;;;;;;;;;5052947;28;20616;-83
2022/04/18 03:47:23;;;;;;;4.50;3.37;;;;;;;;;;5052935;28;20240;-83
2022/04/18 03:49:50;;;;;;;3.83;3.10;;;;;;;;;;5052438;28;20747;-83
2022/04/18 03:52:19;;;;;;;3.10;2.90;;;;;;;;;;5053126;28;20568;-83
2022/04/18 03:54:46;;;;;;;4.53;3.27;;;;;;;;;;5052155;28;20234;-83
2022/04/18 03:57:14;;;;;;;3.17;2.97;;;;;;;;;;5053655;28;20214;-83
2022/04/18 03:59:41;;;;;;;4.03;3.03;;;;;;;;;;5052107;28;20654;-83
2022/04/18 04:02:08;;;;;;;3.20;3.00;;;;;;;;;;5041106;28;20199;-83
2022/04/18 04:04:35;;;;;;;3.47;3.17;;;;;;;;;;5032156;28;20240;-83
2022/04/18 04:07:02;;;;;;;3.57;3.00;;;;;;;;;;5033229;28;20226;-83
2022/04/18 04:09:31;;;;;;;4.90;3.40;;;;;;;;;;5032602;28;20237;-83
2022/04/18 04:11:58;;;;;;;3.00;2.77;;;;;;;;;;5032585;28;20207;-83
2022/04/18 04:14:25;;;;;;;3.50;3.23;;;;;;;;;;5032448;28;20561;-82
2022/04/18 04:16:52;;;;;;;3.40;3.10;;;;;;;;;;5034547;28;20293;-83
2022/04/18 04:19:19;;;;;;;3.40;3.10;;;;;;;;;;5034024;28;20233;-82
2022/04/18 04:21:46;;;;;;;3.67;3.37;;;;;;;;;;5032420;28;20207;-83
2022/04/18 04:24:13;;;;;;;4.93;3.30;;;;;;;;;;5032838;28;20218;-83
2022/04/18 04:26:44;;;;;;;3.60;3.30;;;;;;;;;;5032040;28;20238;-83
2022/04/18 04:29:11;;;;;;;3.60;3.30;;;;;;;;;;5032358;28;20258;-84
2022/04/18 04:31:38;;;;;;;3.40;3.10;;;;;;;;;;5032020;28;20238;-83
2022/04/18 04:34:05;;;;;;;3.70;3.30;;;;;;;;;;5032952;28;20210;-84
2022/04/18 04:36:32;;;;;;;3.27;3.07;;;;;;;;;;5032495;28;20235;-83
2022/04/18 04:38:59;;;;;;;3.17;2.97;;;;;;;;;;5032720;28;20228;-83
2022/04/18 04:41:26;;;;;;;3.20;2.90;;;;;;;;;;5034486;28;20235;-84
2022/04/18 04:43:54;;;;;;;4.37;3.23;;;;;;;;;;5040675;28;20214;-83
2022/04/18 04:46:22;;;;;;;3.33;3.13;;;;;;;;;;5057479;28;20245;-84
2022/04/18 04:48:49;;;;;;;3.73;3.43;;;;;;;;;;5054928;28;20240;-83
2022/04/18 04:51:16;;;;;;;3.60;3.30;;;;;;;;;;5052068;28;20234;-83
2022/04/18 04:53:43;;;;;;;5.33;3.33;;;;;;;;;;5036912;28;20217;-83
2022/04/18 04:56:10;;;;;;;3.40;3.20;;;;;;;;;;5035835;28;20241;-83
2022/04/18 04:58:37;;;;;;;6.97;3.57;;;;;;;;;;5035829;28;20235;-83
2022/04/18 05:01:07;;;;;;;3.60;3.37;;;;;;;;;;5038121;28;20701;-83
2022/04/18 05:03:34;;;;;;;5.27;3.13;;;;;;;;;;5055864;28;20213;-83
2022/04/18 05:06:01;;;;;;;3.83;3.50;;;;;;;;;;5055728;28;20237;-83
2022/04/18 05:08:28;;;;;;;3.83;3.53;;;;;;;;;;5055479;28;20229;-84
2022/04/18 05:10:59;;;;;;;4.80;3.60;;;;;;;;;;5054498;28;20243;-81
2022/04/18 05:13:26;;;;;;;5.17;3.33;;;;;;;;;;5056741;28;20241;-82
2022/04/18 05:15:53;;;;;;;7.40;3.30;;;;;;;;;;5054560;28;20255;-82
2022/04/18 05:18:22;;;;;;;8.13;3.63;;;;;;;;;;5054770;28;20613;-81
2022/04/18 05:20:49;;;;;;;3.77;3.47;;;;;;;;;;5054524;28;20240;-82
2022/04/18 05:23:17;;;;;;;4.03;3.63;;;;;;;;;;5056036;28;20225;-82
2022/04/18 05:25:44;;;;;;;3.73;3.30;;;;;;;;;;5055293;28;20816;-84
2022/04/18 05:28:11;;;;;;;3.90;3.60;;;;;;;;;;5056225;28;20233;-84
2022/04/18 05:30:39;;;;;;;4.03;3.47;;;;;;;;;;5056242;28;20243;-85
2022/04/18 05:33:06;;;;;;;4.13;3.30;;;;;;;;;;5056622;28;20568;-85
2022/04/18 05:35:35;;;;;;;3.90;3.50;;;;;;;;;;5055552;28;20609;-84
2022/04/18 05:38:02;;;;;;;4.67;3.10;;;;;;;;;;5056092;28;20730;-84
2022/04/18 05:40:29;;;;;;;5.23;3.53;;;;;;;;;;5056186;28;20236;-85
2022/04/18 05:42:56;;;;;;;4.20;3.40;;;;;;;;;;5056222;28;20209;-85
2022/04/18 05:45:24;;;;;;;3.93;3.40;;;;;;;;;;5055314;28;20245;-84
2022/04/18 05:47:51;;;;;;;3.73;3.43;;;;;;;;;;5055587;28;20260;-84
2022/04/18 05:50:19;;;;;;;5.83;3.60;;;;;;;;;;5086637;22;20229;-83
2022/04/18 05:52:47;;;;;;;4.20;3.73;;;;;;;;;;5070584;28;20201;-84
2022/04/18 05:55:15;;;;;;;4.40;3.70;;;;;;;;;;5073688;28;20232;-86
2022/04/18 05:57:42;;;;;;;6.07;3.20;;;;;;;;;;5074122;28;20204;-87
2022/04/18 06:00:09;;;;;;;3.73;3.40;;;;;;;;;;5073376;28;20236;-87
2022/04/18 06:02:36;;;;;;;4.10;3.70;;;;;;;;;;5074193;28;20213;-86
2022/04/18 06:05:03;;;;;;;4.97;3.90;;;;;;;;;;5073692;28;20746;-87
2022/04/18 06:07:30;;;;;;;5.47;3.70;;;;;;;;;;5074337;28;20225;-86
2022/04/18 06:09:59;;;;;;;5.10;3.97;;;;;;;;;;5080397;28;20248;-86
2022/04/18 06:12:26;;;;;;;5.77;3.87;;;;;;;;;;5076472;28;20584;-86
2022/04/18 06:14:53;;;;;;;4.47;4.07;;;;;;;;;;5074447;28;20236;-87
2022/04/18 06:17:21;;;;;;;3.80;3.50;;;;;;;;;;5074048;28;20205;-86
2022/04/18 06:19:49;;;;;;;4.57;3.63;;;;;;;;;;5072973;28;20241;-87
2022/04/18 06:22:16;;;;;;;3.70;3.40;;;;;;;;;;5073911;28;20209;-87
2022/04/18 06:24:43;;;;;;;3.50;3.30;;;;;;;;;;5064929;28;20265;-87
2022/04/18 06:27:12;;;;;;;8.27;3.40;;;;;;;;;;5056770;28;20229;-87
2022/04/18 06:29:39;;;;;;;5.77;4.10;;;;;;;;;;5053361;28;20242;-87
2022/04/18 06:32:06;;;;;;;4.00;3.40;;;;;;;;;;5053094;28;20203;-87
2022/04/18 06:34:33;;;;;;;5.40;3.37;;;;;;;;;;5060574;28;20221;-87
2022/04/18 06:37:00;;;;;;;3.87;3.47;;;;;;;;;;5073511;28;20574;-88
2022/04/18 06:39:27;;;;;;;4.97;3.50;;;;;;;;;;5072102;28;20230;-87
2022/04/18 06:41:55;;;;;;;5.43;3.67;;;;;;;;;;5057058;28;20219;-88
2022/04/18 06:44:24;;;;;;;4.57;3.60;;;;;;;;;;5049241;28;20209;-89
2022/04/18 06:46:51;;;;;;;3.90;3.50;;;;;;;;;;5052566;28;20225;-88
2022/04/18 06:49:18;;;;;;;3.47;3.27;;;;;;;;;;5052098;28;20748;-87
2022/04/18 06:51:45;;;;;;;4.73;3.07;;;;;;;;;;5052668;28;20216;-89
2022/04/18 06:54:13;;;;;;;3.90;3.20;;;;;;;;;;5053991;28;20573;-87
2022/04/18 06:59:26;;;;;;;3.33;3.03;;;;;;;;;;5052229;28;20296;-84
2022/04/18 07:01:53;;;;;;;11.97;2.90;;;;;;;;;;5061757;28;20213;-85
2022/04/18 07:04:20;;;;;;;3.07;2.70;;;;;;;;;;5072392;28;20213;-84
2022/04/18 07:06:47;;;;;;;3.13;2.80;;;;;;;;;;5072159;28;20233;-84
2022/04/18 07:09:14;;;;;;;2.67;2.47;;;;;;;;;;5072297;28;20233;-84
2022/04/18 07:11:42;;;;;;;3.47;2.67;;;;;;;;;;5073542;28;20217;-84
2022/04/18 07:14:09;;;;;;;3.63;2.87;;;;;;;;;;5073925;28;20232;-84
2022/04/18 07:16:37;;;;;;;5.23;2.97;;;;;;;;;;5073251;28;20245;-85
2022/04/18 07:19:04;;;;;;;4.47;2.90;;;;;;;;;;5072817;28;20255;-85
2022/04/18 07:21:31;;;;;;;3.33;2.43;;;;;;;;;;5072098;28;20717;-85
2022/04/18 07:23:59;;;;;;;3.10;2.90;;;;;;;;;;5056016;28;20207;-84
2022/04/18 07:26:26;;;;;;;2.97;2.67;;;;;;;;;;5052129;28;20720;-85
2022/04/18 07:28:53;;;;;;;2.70;2.50;;;;;;;;;;5052794;28;20732;-84
2022/04/18 07:31:20;;;;;;;3.37;2.50;;;;;;;;;;5052077;28;20299;-85
2022/04/18 07:33:49;;;;;;;4.83;2.90;;;;;;;;;;5052420;28;20865;-85
2022/04/18 07:36:16;;;;;;;2.70;2.50;;;;;;;;;;5051918;28;20232;-85
2022/04/18 07:38:52;;;;;;;3.10;2.80;;;;;;;;;;5052868;28;20222;-85
2022/04/18 07:41:20;;;;;;;2.50;2.30;;;;;;;;;;5052211;28;20237;-85
2022/04/18 07:43:48;;;;;;;3.40;2.30;;;;;;;;;;5052837;28;20202;-85
2022/04/18 07:46:16;;;;;;;3.10;2.40;;;;;;;;;;5051596;28;20256;-85
2022/04/18 07:48:43;;;;;;;4.37;2.30;;;;;;;;;;5051784;28;20242;-85
2022/04/18 07:53:57;;;;;;;4.50;2.80;;;;;;;;;;5052253;28;20210;-86
2022/04/18 07:56:24;;;;;;;4.07;2.47;;;;;;;;;;5051745;28;20700;-86
2022/04/18 07:58:51;;;;;;;7.67;2.80;;;;;;;;;;5052312;28;20226;-87
2022/04/18 08:01:19;;;;;;;6.87;2.60;;;;;;;;;;5053632;28;20236;-83
2022/04/18 08:03:46;;;;;;;3.10;2.80;;;;;;;;;;5053869;28;20206;-84
2022/04/18 08:06:14;;;;;;;2.60;2.30;;;;;;;;;;5052893;28;20230;-83
2022/04/18 08:08:41;;;;;;;3.50;2.37;;;;;;;;;;5053225;28;20241;-84
2022/04/18 08:11:11;;;;;;;2.47;2.13;;;;;;;;;;5053004;28;20229;-87
2022/04/18 08:13:39;;;;;;;3.70;2.33;;;;;;;;;;5052043;28;20256;-86
2022/04/18 08:16:06;;;;;;;4.03;2.50;;;;;;;;;;5048914;28;20642;-86
2022/04/18 08:18:36;;;;;;;2.60;2.37;;;;;;;;;;5072565;28;20225;-87
2022/04/18 08:21:03;;;;;;;2.50;2.20;;;;;;;;;;5076374;28;20605;-87
2022/04/18 08:23:32;;;;;;;2.70;2.50;;;;;;;;;;5076483;28;20704;-86
2022/04/18 08:25:59;;;;;;;3.10;2.40;;;;;;;;;;5075589;28;20263;-87
2022/04/18 08:28:26;;;;;;;2.37;2.17;;;;;;;;;;5075852;28;20315;-87
2022/04/18 08:30:53;;;;;;;3.30;2.30;;;;;;;;;;5075381;28;20240;-87
2022/04/18 08:33:21;;;;;;;3.50;2.57;;;;;;;;;;5075426;28;20209;-86
2022/04/18 08:35:48;;;;;;;3.07;2.33;;;;;;;;;;5074994;28;20229;-86
2022/04/18 08:38:15;;;;;;;3.33;2.37;;;;;;;;;;5075698;28;20209;-86
2022/04/18 08:40:44;;;;;;;3.70;2.30;;;;;;;;;;5075128;28;20233;-87
2022/04/18 08:43:11;;;;;;;2.03;1.90;;;;;;;;;;5076790;28;20201;-86
2022/04/18 08:45:39;;;;;;;2.40;2.20;;;;;;;;;;5077143;28;20237;-87
2022/04/18 08:53:36;;;;;;;5.20;2.60;;;;;;;;;;5075693;28;20680;-86
2022/04/18 08:56:05;;;;;;;2.42;1.98;;;;;;;;;;5075177;28;20240;-86
2022/04/18 08:58:32;;;;;;;2.97;2.40;;;;;;;;;;5075467;28;20221;-85
2022/04/18 09:01:00;;;;;;;3.47;2.17;;;;;;;;;;5075007;28;20241;-86
2022/04/18 09:03:27;;;;;;;2.42;2.22;;;;;;;;;;5071168;28;20205;-85
2022/04/18 09:06:04;;;;;;;2.75;2.50;;;;;;;;;;5052426;28;20638;-87
2022/04/18 09:08:34;;;;;;;2.67;2.17;;;;;;;;;;5056254;28;20225;-88
2022/04/18 09:11:01;;;;;;;3.30;2.35;;;;;;;;;;5048336;28;20233;-88
2022/04/18 09:13:30;;;;;;;2.10;1.90;;;;;;;;;;5049743;28;20217;-89
2022/04/18 09:15:57;;;;;;;3.00;2.15;;;;;;;;;;5055810;28;20238;-88
2022/04/18 09:18:26;;;;;;;3.15;1.98;;;;;;;;;;5055934;28;20213;-88
2022/04/18 09:20:54;;;;;;;4.15;2.10;;;;;;;;;;5058131;28;20248;-87
2022/04/18 09:23:24;;;;;;;2.38;2.17;;;;;;;;;;5056219;28;20534;-87
2022/04/18 09:25:54;;;;;;;2.65;2.30;;;;;;;;;;5055249;28;20740;-88
2022/04/18 09:28:24;;;;;;;2.50;2.28;;;;;;;;;;5057389;28;20575;-88
2022/04/18 09:30:58;;;;;;;2.10;2.00;;;;;;;;;;5061475;28;20242;-87
2022/04/18 09:33:28;;;;;;;2.40;2.20;;;;;;;;;;5064368;28;20259;-87
2022/04/18 09:36:05;;;;;;;2.15;1.90;;;;;;;;;;5055624;28;20237;-88
2022/04/18 09:38:36;;;;;;;3.35;2.20;;;;;;;;;;5060312;28;20248;-88
2022/04/18 09:41:04;;;;;;;4.13;2.13;;;;;;;;;;5056279;28;20252;-89
2022/04/18 09:43:38;;;;;;;2.47;1.98;;;;;;;;;;5054810;28;20220;-88
2022/04/18 09:46:07;;;;;;;2.58;2.13;;;;;;;;;;5055287;28;20268;-89
2022/04/18 09:48:34;;;;;;;2.10;1.90;;;;;;;;;;5054973;28;20233;-89
2022/04/18 09:51:02;;;;;;;2.05;1.85;;;;;;;;;;5054706;28;20295;-89
2022/04/18 09:53:30;;;;;;;2.92;2.03;;;;;;;;;;5054729;28;20186;-86
2022/04/18 09:55:57;;;;;;;2.85;2.05;;;;;;;;;;5053819;28;20654;-88
2022/04/18 09:58:25;;;;;;;3.08;2.10;;;;;;;;;;5054387;28;20209;-89
2022/04/18 10:00:52;;;;;;;3.05;2.30;;;;;;;;;;5054335;28;20259;-86
2022/04/18 10:03:21;;;;;;;2.92;2.00;;;;;;;;;;5074221;28;20213;-85
2022/04/18 10:05:49;;;;;;;3.33;1.75;;;;;;;;;;5077287;28;20260;-85
2022/04/18 10:08:20;;;;;;;2.28;2.00;;;;;;;;;;5076474;28;20267;-88
2022/04/18 10:13:29;;;;;;;2.17;1.92;;;;;;;;;;5077578;28;20205;-84
2022/04/18 10:16:03;;;;;;;3.70;2.83;;;;;;;;;;5075752;28;20660;-87
2022/04/18 10:18:41;;;;;;;1.90;1.80;;;;;;;;;;5079787;28;20217;-85
2022/04/18 10:21:14;;;;;;;2.40;1.90;;;;;;;;;;5040688;28;20265;-84
2022/04/18 10:24:09;;;;;;;2.78;2.03;;;;;;;;;;5039701;28;20206;-84
2022/04/18 10:26:57;;;;;;;1.95;1.83;;;;;;;;;;5035479;28;20234;-84
2022/04/18 10:29:25;;;;;;;2.35;1.98;;;;;;;;;;5036723;28;20603;-84
2022/04/18 10:31:53;;;;;;;2.17;2.00;;;;;;;;;;5034741;28;20647;-84
2022/04/18 10:34:24;;;;;;;2.78;1.77;;;;;;;;;;5033438;28;20206;-85
2022/04/18 10:36:53;;;;;;;2.00;1.80;;;;;;;;;;5034096;28;20231;-85
2022/04/18 10:39:20;;;;;;;2.55;1.70;;;;;;;;;;5033780;28;20230;-86
2022/04/18 10:41:49;;;;;;;3.13;2.00;;;;;;;;;;5033328;28;20202;-86
2022/04/18 10:44:16;;;;;;;2.50;1.92;;;;;;;;;;5034027;28;20190;-86
2022/04/18 10:46:47;;;;;;;2.08;1.83;;;;;;;;;;5036066;28;20210;-87
2022/04/18 10:49:15;;;;;;;1.92;1.70;;;;;;;;;;5034511;28;20318;-87
2022/04/18 10:51:44;;;;;;;1.80;1.58;;;;;;;;;;5033618;28;20226;-86
2022/04/18 10:54:12;;;;;;;2.05;1.83;;;;;;;;;;5034046;28;20214;-86
2022/04/18 10:56:50;;;;;;;2.08;1.90;;;;;;;;;;5033498;28;20234;-87
2022/04/18 10:59:17;;;;;;;2.63;2.00;;;;;;;;;;5033643;28;20222;-85
2022/04/18 11:01:44;;;;;;;2.83;2.10;;;;;;;;;;5033918;28;20207;-87
2022/04/18 11:04:12;;;;;;;3.20;2.22;;;;;;;;;;5034652;28;20215;-87
2022/04/18 11:06:47;;;;;;;1.85;1.60;;;;;;;;;;5032867;28;20710;-87
2022/04/18 11:09:16;;;;;;;2.22;1.85;;;;;;;;;;5033290;28;20234;-86
2022/04/18 11:11:45;;;;;;;3.13;2.10;;;;;;;;;;5035213;28;20207;-86
2022/04/18 11:14:16;;;;;;;2.38;1.92;;;;;;;;;;5034528;28;20218;-86
2022/04/18 11:16:51;;;;;;;1.58;1.48;;;;;;;;;;5035477;28;20280;-86
2022/04/18 11:19:19;;;;;;;2.03;1.80;;;;;;;;;;5034002;28;20595;-86
2022/04/18 11:22:05;;;;;;;1.80;1.65;;;;;;;;;;5036845;28;20210;-86
2022/04/18 11:24:37;;;;;;;2.00;1.90;;;;;;;;;;5034103;28;20284;-85
2022/04/18 11:27:07;;;;;;;1.92;1.83;;;;;;;;;;5033489;28;20670;-90
2022/04/18 11:29:34;;;;;;;2.13;1.75;;;;;;;;;;5016124;28;20226;-87
2022/04/18 11:32:01;;;;;;;2.08;1.90;;;;;;;;;;5034419;28;20203;-86
2022/04/18 11:34:29;;;;;;;2.08;1.77;;;;;;;;;;5034735;28;20206;-86
2022/04/18 11:36:57;;;;;;;2.17;1.80;;;;;;;;;;5033892;28;20210;-86
2022/04/18 11:39:24;;;;;;;2.60;1.67;;;;;;;;;;5035331;28;20231;-88
2022/04/18 11:42:05;;;;;;;2.13;1.88;;;;;;;;;;5033917;28;20214;-88
2022/04/18 11:44:38;;;;;;;1.70;1.60;;;;;;;;;;5033724;28;20740;-88
2022/04/18 11:47:07;;;;;;;1.48;1.38;;;;;;;;;;5034024;28;20211;-89
2022/04/18 11:49:34;;;;;;;1.67;1.50;;;;;;;;;;5063727;22;20240;-85
2022/04/18 11:52:01;;;;;;;2.20;2.00;;;;;;;;;;5066038;28;20216;-85
2022/04/18 11:54:29;;;;;;;2.50;1.42;;;;;;;;;;5073166;28;20209;-85
2022/04/18 11:56:59;;;;;;;2.03;1.83;;;;;;;;;;5073781;28;20672;-85
2022/04/18 11:59:32;;;;;;;2.17;1.83;;;;;;;;;;5072952;28;20225;-80
2022/04/18 12:07:32;;;;;;;2.00;1.40;;;;;;;;;;5055540;28;20248;-81
2022/04/18 12:09:59;;;;;;;3.28;1.80;;;;;;;;;;5054484;28;20333;-82
2022/04/18 12:12:26;;;;;;;1.80;1.63;;;;;;;;;;5055350;28;20217;-82
2022/04/18 12:14:55;;;;;;;1.55;1.45;;;;;;;;;;5054635;28;20257;-82
2022/04/18 12:17:22;;;;;;;1.52;1.42;;;;;;;;;;5056660;28;20202;-81
2022/04/18 12:19:51;;;;;;;2.30;1.67;;;;;;;;;;5055166;28;20610;-84
2022/04/18 12:22:22;;;;;;;2.15;1.90;;;;;;;;;;5056275;28;20202;-82
2022/04/18 12:24:49;;;;;;;1.70;1.60;;;;;;;;;;5054821;28;20611;-81
2022/04/18 12:27:17;;;;;;;1.80;1.38;;;;;;;;;;5054720;28;20724;-82
2022/04/18 12:29:44;;;;;;;1.42;1.33;;;;;;;;;;5054141;28;20246;-82
2022/04/18 12:32:28;;;;;;;1.60;1.50;;;;;;;;;;5053829;28;20579;-82
2022/04/18 12:34:55;;;;;;;2.47;1.40;;;;;;;;;;5053500;28;20239;-80
2022/04/18 12:37:26;;;;;;;1.50;1.40;;;;;;;;;;5055976;28;20213;-82
2022/04/18 12:40:13;;;;;;;1.15;1.15;;;;;;;;;;5055463;28;20279;-82
2022/04/18 12:42:40;;;;;;;2.05;1.33;;;;;;;;;;5055246;28;20689;-82
2022/04/18 12:45:07;;;;;;;1.90;1.52;;;;;;;;;;5055244;28;20230;-81
2022/04/18 12:47:35;;;;;;;2.38;1.50;;;;;;;;;;5058988;28;20206;-81
2022/04/18 12:50:06;;;;;;;1.55;1.45;;;;;;;;;;5055952;28;20245;-83
2022/04/18 12:52:33;;;;;;;1.65;1.55;;;;;;;;;;5054841;28;20677;-82
2022/04/18 12:55:08;;;;;;;1.60;1.50;;;;;;;;;;5057327;28;20234;-82
2022/04/18 12:57:35;;;;;;;1.20;1.10;;;;;;;;;;5057974;28;20696;-82
2022/04/18 13:00:14;;;;;;;1.40;1.30;;;;;;;;;;5054661;28;20242;-82
2022/04/18 13:02:42;;;;;;;2.13;1.50;;;;;;;;;;5054622;28;20245;-82
2022/04/18 13:05:09;;;;;;;2.15;1.50;;;;;;;;;;5057865;28;20233;-82
2022/04/18 13:07:40;;;;;;;1.83;1.55;;;;;;;;;;5062033;28;20288;-82
2022/04/18 13:10:08;;;;;;;1.85;1.38;;;;;;;;;;5063997;28;20264;-80
2022/04/18 13:12:35;;;;;;;2.38;1.65;;;;;;;;;;5064460;28;20680;-83
2022/04/18 13:15:05;;;;;;;1.40;1.30;;;;;;;;;;5064929;28;20380;-82
2022/04/18 13:17:33;;;;;;;2.05;1.65;;;;;;;;;;5064121;28;20470;-81
2022/04/18 13:20:06;;;;;;;2.70;1.40;;;;;;;;;;5062769;28;20237;-81
2022/04/18 13:22:33;;;;;;;1.60;1.50;;;;;;;;;;5064109;28;20205;-81
2022/04/18 13:25:01;;;;;;;2.97;1.55;;;;;;;;;;5059824;28;20237;-82
2022/04/18 13:27:28;;;;;;;4.55;1.42;;;;;;;;;;5061357;28;20217;-81
2022/04/18 13:29:55;;;;;;;2.47;1.50;;;;;;;;;;5059258;28;20242;-81
2022/04/18 13:32:24;;;;;;;1.40;1.30;;;;;;;;;;5062660;28;20848;-83
2022/04/18 13:34:51;;;;;;;1.55;1.42;;;;;;;;;;5061748;28;20234;-83
2022/04/18 13:37:19;;;;;;;1.83;1.10;;;;;;;;;;5061394;28;20206;-83
2022/04/18 13:39:47;;;;;;;1.50;1.40;;;;;;;;;;5060689;28;20241;-83
2022/04/18 13:42:15;;;;;;;1.92;1.48;;;;;;;;;;5068864;28;20206;-82
2022/04/18 13:44:42;;;;;;;1.42;1.13;;;;;;;;;;5069601;28;20257;-83
2022/04/18 13:47:10;;;;;;;2.50;1.35;;;;;;;;;;5067537;28;20209;-83
2022/04/18 13:49:37;;;;;;;1.50;1.40;;;;;;;;;;5057764;28;20242;-83
2022/04/18 13:52:08;;;;;;;1.77;1.02;;;;;;;;;;5056661;28;20263;-83
2022/04/18 13:54:38;;;;;;;1.83;1.20;;;;;;;;;;5056875;28;20230;-83
2022/04/18 13:57:05;;;;;;;1.30;1.20;;;;;;;;;;5056796;28;20578;-83
2022/04/18 13:59:32;;;;;;;1.40;1.30;;;;;;;;;;5058063;28;20254;-83
2022/04/18 14:02:00;;;;;;;2.50;1.48;;;;;;;;;;5057655;28;20206;-83
2022/04/18 14:04:27;;;;;;;1.70;1.50;;;;;;;;;;5056695;28;20584;-83
2022/04/18 14:06:55;;;;;;;1.50;1.40;;;;;;;;;;5058170;28;20214;-87
2022/04/18 14:09:22;;;;;;;2.38;1.23;;;;;;;;;;5056216;28;20236;-87
2022/04/18 14:11:51;;;;;;;1.40;1.30;;;;;;;;;;5057204;28;20217;-88
2022/04/18 14:22:29;;;;;;;1.40;1.30;;;;;;;;;;5055416;28;20585;-87
2022/04/18 14:24:56;;;;;;;1.80;1.40;;;;;;;;;;5055000;28;20238;-87
2022/04/18 14:27:24;;;;;;;1.27;1.17;;;;;;;;;;5056760;28;20684;-87
2022/04/18 14:29:53;;;;;;;1.55;1.45;;;;;;;;;;5054471;28;20643;-87
2022/04/18 14:32:20;;;;;;;1.75;1.20;;;;;;;;;;5055199;28;20194;-87
2022/04/18 14:34:47;;;;;;;1.27;1.17;;;;;;;;;;5055378;28;20264;-87
2022/04/18 14:37:14;;;;;;;1.98;1.30;;;;;;;;;;5058245;28;20209;-87
2022/04/18 14:39:41;;;;;;;1.67;1.30;;;;;;;;;;5054346;28;20241;-87
2022/04/18 14:42:09;;;;;;;1.48;1.38;;;;;;;;;;5055338;28;20230;-87
2022/04/18 14:44:38;;;;;;;1.70;1.17;;;;;;;;;;5054678;28;20230;-87
2022/04/18 14:47:05;;;;;;;1.75;1.40;;;;;;;;;;5055346;28;20634;-87
2022/04/18 14:49:32;;;;;;;1.90;1.13;;;;;;;;;;5056155;28;20229;-87
2022/04/18 14:51:59;;;;;;;1.98;1.38;;;;;;;;;;5062261;28;20206;-87
2022/04/18 14:54:26;;;;;;;1.45;1.20;;;;;;;;;;5059190;28;20208;-87
2022/04/18 14:56:53;;;;;;;1.10;1.10;;;;;;;;;;5058070;28;20213;-87
2022/04/18 14:59:20;;;;;;;1.20;1.17;;;;;;;;;;5056600;28;20638;-87
2022/04/18 15:01:48;;;;;;;1.33;1.20;;;;;;;;;;5054828;28;20206;-86
2022/04/18 15:04:16;;;;;;;1.40;1.30;;;;;;;;;;5055439;28;20221;-86
2022/04/18 15:06:44;;;;;;;1.95;1.23;;;;;;;;;;5055084;28;20210;-86
2022/04/18 15:09:11;;;;;;;2.30;1.48;;;;;;;;;;5054903;28;20234;-86
2022/04/18 15:11:40;;;;;;;1.38;1.27;;;;;;;;;;5056475;28;20312;-87
2022/04/18 15:14:07;;;;;;;2.90;1.35;;;;;;;;;;5055748;28;20202;-87
2022/04/18 15:16:34;;;;;;;2.35;1.05;;;;;;;;;;5055346;28;20240;-86
2022/04/18 15:19:02;;;;;;;3.78;1.30;;;;;;;;;;5055323;28;20236;-86
2022/04/18 15:21:29;;;;;;;1.00;1.00;;;;;;;;;;5053640;28;20309;-86